Portada
METAR-TAF:

METAR-TAF

Aeroports :

Massena, Nova York, Estats Units d'Amèrica

latitud: 44-56-09N, longitud: 074-50-44W, altitud: 66 m

Observació

L'informe es va fer fa 8 minuts, a les 08:53 UTC
Vent 4 kt del Sud-Oest
Temperatura 12°C
Humitat 100%
Pressió 1012 hPa
Visibilitat: 1.6 km
Cel cobert a una alçada de 100 ft
boirina

METAR: KMSS 160853Z AUTO 23004KT 1SM BR OVC001 12/12 A2987 RMK AO2 SLP115 T01220122 51004

Hora: 05:01 (09:01 UTC)

Pronòstic

L'informe es va fer fa 1 hora i 57 minuts, a les 07:04 UTC
Pronòstic vàlid del 16 a les 07 UTC al 17 a les 06 UTC
Vent 4 kt del Sud-Oest
Visibilitat: 4.8 km
Escasses núvols a una alçada de 25000 ft
boirina
Temporalment
l' 16 a les 07 UTC al 16 a les 10 UTC
Visibilitat: 0.4 km
a una alçada de 100 ft
boira
A partir de les 16 a les 1200 UTC
Vent 5 kt del Nord-Oest
Visibilitat: 10 km
Escasses núvols a una alçada de 7000 ft

TAF: KMSS 160704Z 1607/1706 22004KT 3SM BR FEW250 TEMPO 1607/1610 1/4SM FG VV001 FM161200 32005KT P6SM FEW070

Observacions i pronòstics meteorològics de més de 4000 aeroports (METAR i TAF).

Les estacions disponibles són els punts grocs i vermells al mapa.

Posi el ratolí al punt desitjat per veure el nom de l'estació.

Feu clic per veure les observacions i els pronòstics meteorològics.

Per canviar el mapa: feu clic els botons verds amb una creu de color negre per apropar; al botó verd amb un guió per allunyar la imatge; o en les fletxes verdes per a mapes adjacents.


METAR-TAF: